createdAt,value
2018-06-15T00:00:25.023Z,8.13
2018-06-15T00:02:58.971Z,8.07
2018-06-15T00:05:27.991Z,7.57
2018-06-15T00:07:57.042Z,7.90
2018-06-15T00:10:25.992Z,7.80
2018-06-15T00:12:54.849Z,7.80
2018-06-15T00:15:23.864Z,7.60
2018-06-15T00:17:59.360Z,8.70
2018-06-15T00:20:28.347Z,8.93
2018-06-15T00:22:57.341Z,8.53
2018-06-15T00:25:26.296Z,9.27
2018-06-15T00:27:55.377Z,7.67
2018-06-15T00:30:24.725Z,7.87
2018-06-15T00:32:53.955Z,7.67
2018-06-15T00:35:22.934Z,8.70
2018-06-15T00:37:51.940Z,8.10
2018-06-15T00:40:20.896Z,6.53
2018-06-15T00:42:50.081Z,7.60
2018-06-15T00:45:19.116Z,7.10
2018-06-15T00:47:48.282Z,8.00
2018-06-15T00:50:17.617Z,6.53
2018-06-15T00:52:46.790Z,7.27
2018-06-15T00:55:15.868Z,6.93
2018-06-15T00:57:48.685Z,8.00
2018-06-15T01:00:18.054Z,6.97
2018-06-15T01:02:47.073Z,7.13
2018-06-15T01:05:16.260Z,7.07
2018-06-15T01:07:45.271Z,7.20
2018-06-15T01:10:14.512Z,8.33
2018-06-15T01:12:43.495Z,7.60
2018-06-15T01:15:12.754Z,7.47
2018-06-15T01:17:41.832Z,8.10
2018-06-15T01:20:10.691Z,7.60
2018-06-15T01:22:39.631Z,7.60
2018-06-15T01:25:08.612Z,8.40
2018-06-15T01:27:37.599Z,7.60
2018-06-15T01:30:07.009Z,7.73
2018-06-15T01:32:36.370Z,7.37
2018-06-15T01:35:05.411Z,7.33
2018-06-15T01:37:34.458Z,7.97
2018-06-15T01:40:03.421Z,6.90
2018-06-15T01:45:22.850Z,7.47
2018-06-15T01:47:52.099Z,6.50
2018-06-15T01:50:21.144Z,6.17
2018-06-15T01:52:50.036Z,7.70
2018-06-15T01:55:18.968Z,6.70
2018-06-15T01:57:48.011Z,7.73
2018-06-15T02:00:17.082Z,7.40
2018-06-15T02:02:46.536Z,8.10
2018-06-15T02:05:15.501Z,7.40
2018-06-15T02:07:44.644Z,6.53
2018-06-15T02:10:13.607Z,7.77
2018-06-15T02:12:42.580Z,8.10
2018-06-15T02:15:11.563Z,6.40
2018-06-15T02:17:40.582Z,6.30
2018-06-15T02:20:09.663Z,6.80
2018-06-15T02:22:38.678Z,6.70
2018-06-15T02:25:07.668Z,6.63
2018-06-15T02:27:36.574Z,7.90
2018-06-15T02:30:05.979Z,6.43
2018-06-15T02:32:34.934Z,7.77
2018-06-15T02:35:03.917Z,6.40
2018-06-15T02:37:32.933Z,7.50
2018-06-15T02:40:01.970Z,7.43
2018-06-15T02:42:30.933Z,8.10
2018-06-15T02:44:59.907Z,8.20
2018-06-15T02:47:28.860Z,8.40
2018-06-15T02:49:57.791Z,9.57
2018-06-15T02:52:26.806Z,8.70
2018-06-15T02:54:55.745Z,8.70
2018-06-15T02:57:24.818Z,8.13
2018-06-15T02:59:53.765Z,10.03
2018-06-15T03:02:22.811Z,8.03
2018-06-15T03:04:51.768Z,8.67
2018-06-15T03:07:20.759Z,8.60
2018-06-15T03:09:49.702Z,8.70
2018-06-15T03:12:18.687Z,9.80
2018-06-15T03:14:47.759Z,9.60
2018-06-15T03:17:16.745Z,7.73
2018-06-15T03:19:45.763Z,8.83
2018-06-15T03:22:14.672Z,8.00
2018-06-15T03:24:43.705Z,9.03
2018-06-15T03:27:12.915Z,10.00
2018-06-15T03:29:42.099Z,10.23
2018-06-15T03:32:11.038Z,10.90
2018-06-15T03:34:40.027Z,9.27
2018-06-15T03:37:08.999Z,9.47
2018-06-15T03:39:38.032Z,9.10
2018-06-15T03:42:07.175Z,9.70
2018-06-15T03:44:36.238Z,9.17
2018-06-15T03:47:05.213Z,8.40
2018-06-15T03:49:36.468Z,9.00
2018-06-15T03:52:05.380Z,9.70
2018-06-15T03:54:34.317Z,8.13
2018-06-15T03:57:03.257Z,9.10
2018-06-15T03:59:31.961Z,9.70
2018-06-15T04:02:01.447Z,9.90
2018-06-15T04:04:30.713Z,11.40
2018-06-15T04:06:59.702Z,11.20
2018-06-15T04:09:28.670Z,9.77
2018-06-15T04:11:57.642Z,11.33
2018-06-15T04:14:26.600Z,9.87
2018-06-15T04:16:55.594Z,9.00
2018-06-15T04:19:24.541Z,10.70
2018-06-15T04:21:53.494Z,8.90
2018-06-15T04:24:22.445Z,9.10
2018-06-15T04:26:51.467Z,8.50
2018-06-15T04:29:20.516Z,8.30
2018-06-15T04:31:49.647Z,8.60
2018-06-15T04:34:18.564Z,8.60
2018-06-15T04:36:47.620Z,9.73
2018-06-15T04:39:16.618Z,8.70
2018-06-15T04:41:45.618Z,9.67
2018-06-15T04:44:14.621Z,8.73
2018-06-15T04:46:43.614Z,8.20
2018-06-15T04:49:12.632Z,9.13
2018-06-15T04:51:41.564Z,9.20
2018-06-15T04:54:10.504Z,10.33
2018-06-15T04:56:39.485Z,9.43
2018-06-15T04:59:08.478Z,8.67
2018-06-15T05:01:37.530Z,8.30
2018-06-15T05:04:06.487Z,8.60
2018-06-15T05:06:35.473Z,8.70
2018-06-15T05:09:06.208Z,8.00
2018-06-15T05:11:35.136Z,8.93
2018-06-15T05:14:04.170Z,9.20
2018-06-15T05:16:33.111Z,8.77
2018-06-15T05:19:02.093Z,7.80
2018-06-15T05:21:30.993Z,7.77
2018-06-15T05:23:59.976Z,8.73
2018-06-15T05:26:28.954Z,9.03
2018-06-15T05:28:58.017Z,9.30
2018-06-15T05:31:27.022Z,8.70
2018-06-15T05:33:56.019Z,9.40
2018-06-15T05:36:24.975Z,7.90
2018-06-15T05:38:53.955Z,7.90
2018-06-15T05:41:22.828Z,8.97
2018-06-15T05:43:51.813Z,7.43
2018-06-15T05:46:20.711Z,8.87
2018-06-15T05:48:49.639Z,8.93
2018-06-15T05:51:18.600Z,7.87
2018-06-15T05:53:47.498Z,8.20
2018-06-15T05:56:16.441Z,8.20
2018-06-15T05:58:45.430Z,8.40
2018-06-15T06:01:14.359Z,8.83
2018-06-15T06:03:43.447Z,9.17
2018-06-15T06:06:12.423Z,8.67
2018-06-15T06:11:31.425Z,8.97
2018-06-15T06:14:00.380Z,9.03
2018-06-15T06:16:29.329Z,8.33
2018-06-15T06:18:58.303Z,8.07
2018-06-15T06:21:27.317Z,7.83
2018-06-15T06:23:56.597Z,8.00
2018-06-15T06:26:25.527Z,8.87
2018-06-15T06:28:54.446Z,8.40
2018-06-15T06:31:23.416Z,7.80
2018-06-15T06:33:52.306Z,8.50
2018-06-15T06:36:21.282Z,9.20
2018-06-15T06:38:50.180Z,7.13
2018-06-15T06:41:19.062Z,7.33
2018-06-15T06:43:48.037Z,7.37
2018-06-15T06:46:17.007Z,7.93
2018-06-15T06:48:46.014Z,8.00
2018-06-15T06:51:14.959Z,8.03
2018-06-15T06:53:43.916Z,7.60
2018-06-15T06:56:12.917Z,7.17
2018-06-15T06:58:41.834Z,7.37
2018-06-15T07:01:10.876Z,7.30
2018-06-15T07:03:39.912Z,7.43
2018-06-15T07:06:08.875Z,7.30
2018-06-15T07:08:37.816Z,7.93
2018-06-15T07:11:06.742Z,6.43
2018-06-15T07:13:35.660Z,7.03
2018-06-15T07:16:04.617Z,6.83
2018-06-15T07:18:33.608Z,7.10
2018-06-15T07:21:02.953Z,7.60
2018-06-15T07:23:32.214Z,7.57
2018-06-15T07:26:01.275Z,6.90
2018-06-15T07:28:30.575Z,7.10
2018-06-15T07:30:59.708Z,7.37
2018-06-15T07:33:28.685Z,6.77
2018-06-15T07:35:57.628Z,5.93
2018-06-15T07:38:26.576Z,7.07
2018-06-15T07:40:55.485Z,5.57
2018-06-15T07:43:24.386Z,6.80
2018-06-15T07:45:53.475Z,6.67
2018-06-15T07:48:22.497Z,6.90
2018-06-15T07:50:51.492Z,6.00
2018-06-15T07:53:20.387Z,7.00
2018-06-15T07:55:49.357Z,6.73
2018-06-15T07:58:18.274Z,6.13
2018-06-15T08:00:47.156Z,6.73
2018-06-15T08:03:16.103Z,6.27
2018-06-15T08:05:45.025Z,6.53
2018-06-15T08:08:14.263Z,4.93
2018-06-15T08:10:43.173Z,6.10
2018-06-15T08:13:20.324Z,5.50
2018-06-15T08:15:49.276Z,6.80
2018-06-15T08:18:18.192Z,5.00
2018-06-15T08:20:47.124Z,4.90
2018-06-15T08:23:24.589Z,5.27
2018-06-15T08:26:03.231Z,5.30
2018-06-15T08:28:40.031Z,5.27
2018-06-15T08:31:16.848Z,5.60
2018-06-15T08:33:56.577Z,5.10
2018-06-15T08:36:36.183Z,7.63
2018-06-15T08:39:16.567Z,6.20
2018-06-15T08:41:55.431Z,6.20
2018-06-15T08:44:32.382Z,6.00
2018-06-15T08:47:09.887Z,5.80
2018-06-15T08:49:47.665Z,5.93
2018-06-15T08:52:16.640Z,5.73
2018-06-15T08:54:48.013Z,5.27
2018-06-15T08:57:16.875Z,6.10
2018-06-15T08:59:47.704Z,6.00
2018-06-15T09:02:16.836Z,6.73
2018-06-15T09:04:45.764Z,7.17
2018-06-15T09:07:14.708Z,8.27
2018-06-15T09:09:43.594Z,8.20
2018-06-15T09:12:12.579Z,8.07
2018-06-15T09:14:41.504Z,7.30
2018-06-15T09:17:10.450Z,7.07
2018-06-15T09:19:39.360Z,7.47
2018-06-15T09:22:08.275Z,7.57
2018-06-15T09:24:37.181Z,6.73
2018-06-15T09:27:06.155Z,6.33
2018-06-15T09:29:35.097Z,6.30
2018-06-15T09:32:04.588Z,6.20
2018-06-15T09:34:33.462Z,6.97
2018-06-15T09:37:02.785Z,7.00
2018-06-15T09:39:31.871Z,7.63
2018-06-15T09:42:00.884Z,7.40
2018-06-15T09:44:31.222Z,7.80
2018-06-15T09:47:00.208Z,8.10
2018-06-15T09:49:29.212Z,7.87
2018-06-15T09:52:01.268Z,8.53
2018-06-15T09:54:31.016Z,8.73
2018-06-15T09:57:00.142Z,8.27
2018-06-15T09:59:29.271Z,7.70
2018-06-15T10:01:58.276Z,8.07
2018-06-15T10:04:28.192Z,8.17
2018-06-15T10:06:57.347Z,7.30
2018-06-15T10:09:37.993Z,7.93
2018-06-15T10:12:07.323Z,7.83
2018-06-15T10:14:36.275Z,8.10
2018-06-15T10:17:05.404Z,7.67
2018-06-15T10:19:34.463Z,8.40
2018-06-15T10:22:03.595Z,8.30
2018-06-15T10:24:32.535Z,7.93
2018-06-15T10:27:01.450Z,6.73
2018-06-15T10:29:30.361Z,7.93
2018-06-15T10:31:59.243Z,7.17
2018-06-15T10:34:28.102Z,7.30
2018-06-15T10:36:57.047Z,7.93
2018-06-15T10:39:25.980Z,6.47
2018-06-15T10:41:56.378Z,7.07
2018-06-15T10:44:25.345Z,5.53
2018-06-15T10:46:54.257Z,5.87
2018-06-15T10:49:23.321Z,6.27
2018-06-15T10:51:52.233Z,5.90
2018-06-15T10:54:21.101Z,6.33
2018-06-15T10:56:49.951Z,5.87
2018-06-15T10:59:18.908Z,7.10
2018-06-15T11:01:47.768Z,7.17
2018-06-15T11:04:16.726Z,6.43
2018-06-15T11:06:45.618Z,7.40
2018-06-15T11:09:14.482Z,5.50
2018-06-15T11:11:43.433Z,6.13
2018-06-15T11:14:12.281Z,6.00
2018-06-15T11:16:41.178Z,4.50
2018-06-15T11:19:10.046Z,5.00
2018-06-15T11:21:38.907Z,5.60
2018-06-15T11:24:07.778Z,5.07
2018-06-15T11:26:36.701Z,4.77
2018-06-15T11:29:05.806Z,5.30
2018-06-15T11:31:34.654Z,5.90
2018-06-15T11:34:03.470Z,5.40
2018-06-15T11:36:32.325Z,5.00
2018-06-15T11:39:01.393Z,5.73
2018-06-15T11:41:30.293Z,4.97
2018-06-15T11:43:59.409Z,5.67
2018-06-15T11:46:28.317Z,4.40
2018-06-15T11:48:57.205Z,4.30
2018-06-15T11:51:26.861Z,4.10
2018-06-15T11:53:55.840Z,4.83
2018-06-15T11:56:24.969Z,5.53
2018-06-15T11:58:53.924Z,6.03
2018-06-15T12:01:22.826Z,5.73
2018-06-15T12:03:51.860Z,6.37
2018-06-15T12:06:21.819Z,6.73
2018-06-15T12:08:50.671Z,5.97
2018-06-15T12:11:19.704Z,6.20
2018-06-15T12:13:48.702Z,6.10
2018-06-15T12:16:17.601Z,6.40
2018-06-15T12:18:46.504Z,5.97
2018-06-15T12:21:15.381Z,4.97
2018-06-15T12:26:34.347Z,6.10
2018-06-15T12:29:03.298Z,5.17
2018-06-15T12:31:32.300Z,5.67
2018-06-15T12:34:01.419Z,5.60
2018-06-15T12:36:30.300Z,5.93
2018-06-15T12:38:59.299Z,6.93
2018-06-15T12:41:28.228Z,6.77
2018-06-15T12:43:57.047Z,5.63
2018-06-15T12:46:25.886Z,5.23
2018-06-15T12:48:54.709Z,4.23
2018-06-15T12:51:23.591Z,5.03
2018-06-15T12:53:52.524Z,5.50
2018-06-15T12:56:21.402Z,6.13
2018-06-15T12:58:50.423Z,5.10
2018-06-15T13:01:19.310Z,5.40
2018-06-15T13:03:48.636Z,5.40
2018-06-15T13:06:20.109Z,5.17
2018-06-15T13:08:49.055Z,5.30
2018-06-15T13:11:17.903Z,6.30
2018-06-15T13:13:46.776Z,5.83
2018-06-15T13:16:15.602Z,5.83
2018-06-15T13:18:44.406Z,8.27
2018-06-15T13:21:13.374Z,7.00
2018-06-15T13:23:42.278Z,8.23
2018-06-15T13:26:11.119Z,8.53
2018-06-15T13:29:05.475Z,7.07
2018-06-15T13:31:51.947Z,6.37
2018-06-15T13:34:21.922Z,6.50
2018-06-15T13:39:41.606Z,7.03
2018-06-15T13:42:26.729Z,6.80
2018-06-15T13:49:12.571Z,6.43
2018-06-15T13:51:41.692Z,7.53
2018-06-15T13:54:13.531Z,7.10
2018-06-15T13:56:43.205Z,7.90
2018-06-15T13:59:16.622Z,7.27
2018-06-15T14:01:45.594Z,6.80
2018-06-15T14:04:15.493Z,7.00
2018-06-15T14:06:45.200Z,6.83
2018-06-15T14:09:14.054Z,7.33
2018-06-15T14:11:42.961Z,6.40
2018-06-15T14:14:12.152Z,7.27
2018-06-15T14:20:54.962Z,6.73
2018-06-15T14:23:25.937Z,7.30
2018-06-15T14:25:58.785Z,7.10
2018-06-15T14:28:55.553Z,6.90
2018-06-15T14:31:25.280Z,6.60
2018-06-15T14:33:56.443Z,6.10
2018-06-15T14:36:26.476Z,7.00
2018-06-15T14:38:55.203Z,7.53
2018-06-15T14:41:25.815Z,6.73
2018-06-15T14:43:55.542Z,6.57
2018-06-15T14:46:24.875Z,6.40
2018-06-15T14:48:54.077Z,7.97
2018-06-15T14:51:22.931Z,7.33
2018-06-15T14:53:57.151Z,6.13
2018-06-15T14:56:25.923Z,6.57
2018-06-15T14:58:57.867Z,6.47
2018-06-15T15:01:30.112Z,7.17
2018-06-15T15:03:59.300Z,6.87
2018-06-15T15:06:28.129Z,6.20
2018-06-15T15:08:56.933Z,6.50
2018-06-15T15:11:25.899Z,6.93
2018-06-15T15:13:54.717Z,5.47
2018-06-15T15:16:26.284Z,5.80
2018-06-15T15:18:56.913Z,5.93
2018-06-15T15:21:30.810Z,5.90
2018-06-15T15:23:59.861Z,6.30
2018-06-15T15:26:29.512Z,6.83
2018-06-15T15:28:58.573Z,6.17
2018-06-15T15:31:28.060Z,6.10
2018-06-15T15:34:01.759Z,5.73
2018-06-15T15:36:34.976Z,6.03
2018-06-15T15:39:05.345Z,6.10
2018-06-15T15:41:34.253Z,6.47
2018-06-15T15:44:03.380Z,5.83
2018-06-15T15:46:50.573Z,9.77
2018-06-15T15:49:19.460Z,6.97
2018-06-15T15:51:54.599Z,6.80
2018-06-15T15:54:24.334Z,6.73
2018-06-15T15:56:53.742Z,6.30
2018-06-15T15:59:29.207Z,5.87
2018-06-15T16:01:58.383Z,6.20
2018-06-15T16:04:37.573Z,6.70
2018-06-15T16:07:06.752Z,5.53
2018-06-15T16:09:36.627Z,6.73
2018-06-15T16:12:07.800Z,6.73
2018-06-15T16:14:36.806Z,6.83
2018-06-15T16:17:05.987Z,6.40
2018-06-15T16:19:34.920Z,6.33
2018-06-15T16:22:03.969Z,5.03
2018-06-15T16:24:32.908Z,5.57
2018-06-15T16:27:01.905Z,6.13
2018-06-15T16:29:30.869Z,5.37
2018-06-15T16:32:00.118Z,5.57
2018-06-15T16:34:28.975Z,4.77
2018-06-15T16:36:58.959Z,5.90
2018-06-15T16:39:27.915Z,4.70
2018-06-15T16:41:57.092Z,5.77
2018-06-15T16:44:28.256Z,5.17
2018-06-15T16:46:57.360Z,4.73
2018-06-15T16:49:26.402Z,6.10
2018-06-15T16:51:55.507Z,6.20
2018-06-15T16:54:26.604Z,5.57
2018-06-15T16:56:55.658Z,5.13
2018-06-15T16:59:28.708Z,6.40
2018-06-15T17:02:04.241Z,5.27
2018-06-15T17:04:33.242Z,5.90
2018-06-15T17:07:02.708Z,5.33
2018-06-15T17:12:08.574Z,5.07
2018-06-15T17:14:44.525Z,5.00
2018-06-15T17:17:13.726Z,4.80
2018-06-15T17:19:43.345Z,5.37
2018-06-15T17:22:13.059Z,5.33
2018-06-15T17:24:42.086Z,5.03
2018-06-15T17:27:11.047Z,5.10
2018-06-15T17:29:40.088Z,4.93
2018-06-15T17:32:09.120Z,4.97
2018-06-15T17:34:38.160Z,4.87
2018-06-15T17:37:07.386Z,5.97
2018-06-15T17:39:36.376Z,5.20
2018-06-15T17:42:09.066Z,5.27
2018-06-15T17:44:38.216Z,4.97
2018-06-15T17:47:14.725Z,5.00
2018-06-15T17:49:46.915Z,5.27
2018-06-15T17:52:15.857Z,5.57
2018-06-15T17:54:45.621Z,4.93
2018-06-15T17:57:15.739Z,5.23
2018-06-15T17:59:44.950Z,4.27
2018-06-15T18:02:13.940Z,5.10
2018-06-15T18:04:55.084Z,5.07
2018-06-15T18:07:23.761Z,4.40
2018-06-15T18:09:53.249Z,4.80
2018-06-15T18:12:24.261Z,4.80
2018-06-15T18:14:53.398Z,5.30
2018-06-15T18:17:22.599Z,5.30
2018-06-15T18:19:53.245Z,4.77
2018-06-15T18:22:22.403Z,5.70
2018-06-15T18:25:01.657Z,6.40
2018-06-15T18:27:31.369Z,5.40
2018-06-15T18:30:01.192Z,5.80
2018-06-15T18:32:34.635Z,7.47
2018-06-15T18:35:06.743Z,7.30
2018-06-15T18:37:35.773Z,8.00
2018-06-15T18:40:05.979Z,11.50
2018-06-15T18:42:35.110Z,9.90
2018-06-15T18:45:17.556Z,7.50
2018-06-15T18:47:46.511Z,5.50
2018-06-15T18:50:15.534Z,5.80
2018-06-15T18:52:50.986Z,6.00
2018-06-15T18:55:20.615Z,5.97
2018-06-15T18:57:49.801Z,5.37
2018-06-15T19:00:33.813Z,6.53
2018-06-15T19:03:02.860Z,6.03
2018-06-15T19:05:43.986Z,9.13
2018-06-15T19:08:13.163Z,6.77
2018-06-15T19:10:52.329Z,6.90
2018-06-15T19:13:26.977Z,7.00
2018-06-15T19:15:56.071Z,8.00
2018-06-15T19:18:31.462Z,7.80
2018-06-15T19:21:00.689Z,8.23
2018-06-15T19:23:29.715Z,14.20
2018-06-15T19:26:13.702Z,10.10
2018-06-15T19:28:48.142Z,8.27
2018-06-15T19:31:17.144Z,7.90
2018-06-15T19:33:46.724Z,8.23
2018-06-15T19:36:15.764Z,7.30
2018-06-15T19:38:48.556Z,6.80
2018-06-15T19:41:37.434Z,7.80
2018-06-15T19:44:06.578Z,6.53
2018-06-15T19:46:35.801Z,7.13
2018-06-15T19:49:04.918Z,6.30
2018-06-15T19:51:34.042Z,6.20
2018-06-15T19:54:03.154Z,7.10
2018-06-15T19:56:34.550Z,6.93
2018-06-15T19:59:04.885Z,7.43
2018-06-15T20:01:45.941Z,6.83
2018-06-15T20:04:28.249Z,6.93
2018-06-15T20:07:01.089Z,7.67
2018-06-15T20:09:32.085Z,7.10
2018-06-15T20:12:01.136Z,8.20
2018-06-15T20:17:10.507Z,7.53
2018-06-15T20:19:40.005Z,7.83
2018-06-15T20:22:21.899Z,6.93
2018-06-15T20:24:50.972Z,7.80
2018-06-15T20:27:20.070Z,7.90
2018-06-15T20:29:52.361Z,7.00
2018-06-15T20:32:21.343Z,7.73
2018-06-15T20:34:57.603Z,8.40
2018-06-15T20:37:29.103Z,7.07
2018-06-15T20:40:04.882Z,7.43
2018-06-15T20:42:43.504Z,6.80
2018-06-15T20:45:12.534Z,7.63
2018-06-15T20:47:41.550Z,7.90
2018-06-15T20:50:10.456Z,7.50
2018-06-15T21:15:43.689Z,8.10
2018-06-15T21:18:13.065Z,7.53
2018-06-15T21:20:42.340Z,7.70
2018-06-15T21:23:11.399Z,8.10
2018-06-15T21:25:47.385Z,8.73
2018-06-15T21:28:16.665Z,8.77
2018-06-15T21:30:45.777Z,7.90
2018-06-15T21:33:14.843Z,8.80
2018-06-15T21:38:31.825Z,8.10
2018-06-15T21:41:00.931Z,8.37
2018-06-15T21:43:29.965Z,9.17
2018-06-15T21:45:58.996Z,8.00
2018-06-15T21:48:28.972Z,7.87
2018-06-15T21:50:58.082Z,9.20
2018-06-15T21:53:33.694Z,8.13
2018-06-15T21:56:04.092Z,8.20
2018-06-15T21:58:33.225Z,8.93
2018-06-15T22:01:02.571Z,8.80
2018-06-15T22:03:31.819Z,8.80
2018-06-15T22:06:00.699Z,8.63
2018-06-15T22:08:29.639Z,8.13
2018-06-15T22:10:58.423Z,9.17
2018-06-15T22:13:27.176Z,8.50
2018-06-15T22:15:56.845Z,9.00
2018-06-15T22:18:25.897Z,8.50
2018-06-15T22:20:55.055Z,9.60
2018-06-15T22:23:24.167Z,8.50
2018-06-15T22:25:53.264Z,10.10
2018-06-15T22:28:22.018Z,9.20
2018-06-15T22:30:50.757Z,8.53
2018-06-15T22:33:19.699Z,9.30
2018-06-15T22:35:49.300Z,9.07
2018-06-15T22:38:33.133Z,8.80
2018-06-15T22:44:11.132Z,8.73
2018-06-15T22:46:52.127Z,8.40
2018-06-15T23:03:33.580Z,8.43
2018-06-15T23:20:27.978Z,9.03
2018-06-15T23:23:09.833Z,9.53
2018-06-15T23:25:51.343Z,8.53
2018-06-15T23:28:31.557Z,8.10
2018-06-15T23:31:01.319Z,8.80
2018-06-15T23:33:30.888Z,9.30
2018-06-15T23:35:59.869Z,8.47
2018-06-15T23:38:28.613Z,9.40
2018-06-15T23:40:57.240Z,8.23
2018-06-15T23:43:26.191Z,8.73
2018-06-15T23:45:54.948Z,9.67
2018-06-15T23:48:23.644Z,8.60
2018-06-15T23:50:52.394Z,8.60
2018-06-15T23:53:21.296Z,8.60
2018-06-15T23:55:50.409Z,8.60
2018-06-15T23:58:19.589Z,8.60
